x

8570283 - Ocean City Inlet, Md (ocim2) Weather Station

4:18am - Wed 28th Jan 2015 All times are EST. -5 hours from GMT.

  • Wind
    23mph, 29mph gusts
  • Sea Temp 38°f
  • Air Temp 25°f
  • Sea Pressure 1015.2mb
  • 8570283 - Ocean City Inlet, Md
  • 8570283 - Ocean City Inlet, Md

More Historic Weather Station data

Upgrade to MSW Pro to gain access to the past 30 days of data for over 8000 Wavebouys and Weather Stations around the globe.

Join Pro

Comparision Forecast

View Surf forecast
   
Wed 01/28 4:18am 23 29 mph 1015.2mb 38f 25f
4:12am 22 25 mph 1015mb 38f 25f
4:06am 23 26 mph 1015mb 38f 25f
4:00am 22 28 mph 1015mb 38f 25f
3:54am 18 24 mph 1015mb 38f 25f
3:48am 21 25 mph 1014.9mb 38f 25f
3:42am 17 24 mph 1014.9mb 38f 26f
3:36am 22 28 mph 1014.7mb 38f 25f
3:30am 22 28 mph 1014.7mb 38f 25f
3:24am 21 24 mph 1014.6mb 38f 26f
3:18am 21 26 mph 1014.5mb 38f 26f
3:12am 18 23 mph 1014.4mb 38f 26f
3:06am 20 23 mph 1014.4mb 38f 27f
3:00am 21 26 mph 1014.3mb 38f 26f
2:54am 22 25 mph 1014.2mb 38f 26f
2:48am 26 32 mph 1014.1mb 38f 26f
2:42am 24 31 mph 1014mb 38f 27f
2:36am 23 31 mph 1013.9mb 38f 27f
2:30am 22 29 mph 1013.8mb 38f 28f
2:24am 24 31 mph 1013.6mb 38f 28f
2:18am 24 31 mph 1013.5mb 38f 28f
2:12am 22 28 mph 1013.4mb 38f 29f
2:06am 20 25 mph 1013.3mb 38f 29f
2:00am 16 23 mph 1013.2mb 38f 29f
1:54am 22 28 mph 1013mb 38f 29f
1:48am 15 22 mph 1012.9mb 38f 29f
1:42am 16 20 mph 1012.7mb 38f 29f
1:36am 14 16 mph 1012.6mb 38f 30f
1:30am 15 18 mph 1012.5mb 38f 30f
1:24am 14 18 mph 1012.4mb 38f 30f
1:18am 13 17 mph 1012.2mb - -
1:12am 15 20 mph 1012.1mb 38f 30f
1:06am 14 16 mph 1011.9mb 38f 30f
1:00am 16 22 mph 1011.8mb 38f 30f
12:54am 14 17 mph 1011.8mb 38f 30f
12:48am 11 16 mph 1011.7mb 38f 30f
12:42am 16 24 mph 1011.7mb 38f 30f
12:36am 14 16 mph 1011.7mb 38f 30f
12:30am 13 16 mph 1011.7mb 38f 30f
12:24am 11 14 mph 1011.6mb 38f 30f
12:18am 13 16 mph 1011.6mb 38f 30f
12:12am 16 20 mph 1011.5mb 38f 30f
12:06am 14 17 mph 1011.4mb 38f 31f
12:00am 14 17 mph 1011.4mb 38f 30f
Tue 01/27 11:54pm 14 18 mph 1011.4mb 38f 31f
11:48pm 14 20 mph 1011.3mb 38f 31f
11:42pm 15 20 mph 1011.2mb 38f 31f
11:36pm 14 18 mph 1011.2mb 38f 31f
11:30pm 14 18 mph 1011.1mb 38f 31f
11:24pm 15 18 mph 1011mb 38f 31f
11:18pm 16 22 mph 1010.9mb 38f 31f
11:12pm 16 21 mph 1010.9mb 37f 31f
11:06pm 14 18 mph 1010.8mb 37f 31f
11:00pm 16 22 mph 1010.8mb 37f 31f
10:54pm 18 22 mph 1010.7mb 37f 31f
10:48pm 15 21 mph 1010.7mb 37f 31f
10:42pm 16 20 mph 1010.6mb 37f 31f
10:36pm 15 18 mph 1010.5mb 37f 31f
10:30pm 16 22 mph 1010.4mb 37f 31f
10:24pm 15 22 mph 1010.3mb 37f 32f
10:18pm 15 20 mph 1010.2mb 37f 32f
10:12pm 16 22 mph 1010.2mb 37f 32f
10:06pm 13 17 mph 1010.2mb 37f 31f
10:00pm 13 15 mph 1010.2mb 38f 32f
9:54pm 16 20 mph 1010.1mb 38f 32f
9:48pm 14 21 mph 1010.1mb 38f 32f
9:42pm 13 15 mph 1010.1mb 38f 32f
9:36pm 13 16 mph 1010mb 38f 32f
9:30pm 13 16 mph 1009.9mb 38f 32f
9:24pm 13 16 mph 1010mb 38f 32f
9:18pm 15 21 mph 1009.9mb 38f 32f
9:12pm 15 21 mph 1009.8mb 38f 32f
9:06pm 14 18 mph 1009.7mb 38f 32f
9:00pm 14 18 mph 1009.6mb 38f 32f
8:54pm 13 20 mph 1009.7mb 38f 32f
8:48pm 11 15 mph 1009.7mb 38f 32f
8:42pm 11 14 mph 1009.7mb 38f 32f
8:36pm 14 16 mph 1009.6mb 38f 32f
8:30pm 11 14 mph 1009.6mb 38f 33f
8:24pm 10 14 mph 1009.5mb 38f 33f
8:18pm 10 15 mph 1009.4mb 38f 32f
8:12pm 11 16 mph 1009.3mb 38f 33f
8:06pm 11 15 mph 1009.2mb 38f 33f
8:00pm 13 16 mph 1009.2mb 38f 33f
7:54pm 11 14 mph 1009.1mb 38f 33f
7:48pm 11 14 mph 1009.1mb 38f 33f
7:42pm 10 11 mph 1009mb 38f 33f
7:36pm 9 13 mph 1009mb 38f 33f
7:30pm 9 11 mph 1008.9mb 38f 33f
7:24pm 10 13 mph 1008.9mb 38f 33f
7:18pm 9 13 mph 1008.9mb 38f 33f
7:12pm 10 11 mph 1008.8mb 38f 33f
7:06pm 11 14 mph 1008.7mb 38f 33f
7:00pm 10 14 mph 1008.6mb 38f 33f
6:54pm 10 11 mph 1008.6mb 38f 33f
6:48pm 9 11 mph - - -
6:42pm 10 14 mph 1008.4mb 38f 33f
6:36pm 8 10 mph 1008.4mb 38f 33f
6:30pm 8 10 mph 1008.3mb 38f 33f
6:24pm 8 10 mph 1008.2mb 38f 33f
6:18pm 9 13 mph 1008.1mb 38f 33f
6:12pm 10 14 mph 1008mb 38f 34f
6:06pm 9 11 mph 1008mb 38f 34f
6:00pm 10 13 mph 1007.8mb 38f 34f
5:54pm 10 13 mph 1007.7mb 38f 34f
5:48pm 11 15 mph 1007.6mb 38f 34f
5:42pm 10 13 mph 1007.5mb 38f 34f
5:36pm 8 10 mph 1007.3mb 38f 34f
5:30pm 10 13 mph 1007.2mb 38f 34f
5:24pm 14 18 mph 1007.1mb 38f 34f
5:18pm 9 13 mph 1007mb 38f 34f
5:12pm 10 14 mph 1006.9mb 38f 34f
5:06pm 11 14 mph 1006.8mb 38f 34f
5:00pm 13 16 mph 1006.6mb 38f 34f
4:54pm 10 14 mph 1006.5mb 38f 34f
4:48pm 9 13 mph 1006.5mb 38f 34f
4:42pm 10 15 mph 1006.4mb 38f 34f
4:36pm 14 18 mph 1006.3mb 38f 34f
4:30pm 11 15 mph 1006.3mb 38f 34f
4:24pm 14 20 mph 1006.2mb 38f 34f
4:18pm 14 17 mph 1006.2mb 38f 34f
4:12pm 14 18 mph 1006.2mb 38f 34f
4:06pm 13 17 mph 1006.1mb 38f 34f
4:00pm 10 14 mph 1006mb 38f 34f
3:54pm 13 17 mph 1006mb 38f 34f
3:48pm 15 18 mph 1006mb 38f 33f
3:42pm 11 14 mph 1006mb 38f 33f
3:36pm 11 14 mph 1005.9mb 39f 34f
3:30pm 13 16 mph 1005.9mb 39f 33f
3:24pm 15 18 mph 1005.8mb 39f 33f
3:18pm 15 20 mph 1005.8mb 39f 33f
3:12pm 15 18 mph 1005.7mb 39f 33f
3:06pm 13 15 mph 1005.7mb 39f 33f
3:00pm 11 15 mph 1005.6mb 39f 33f
2:54pm 14 18 mph 1005.6mb 39f 33f
2:48pm 13 15 mph 1005.6mb 39f 33f
2:42pm 15 21 mph 1005.4mb 39f 33f
2:36pm 13 15 mph 1005.5mb 39f 33f
2:30pm 14 17 mph 1005.5mb 39f 33f
2:24pm 13 16 mph 1005.5mb 39f 33f
2:18pm 15 21 mph 1005.5mb 39f 32f
2:12pm 16 21 mph 1005.5mb 39f 32f
2:06pm 15 17 mph 1005.5mb 39f 32f
2:00pm 16 20 mph 1005.5mb 39f 32f
1:54pm 14 18 mph 1005.5mb 39f 33f
1:48pm 15 18 mph 1005.4mb 39f 32f
1:42pm 15 18 mph 1005.4mb 39f 32f
1:36pm 17 23 mph 1005.3mb 39f 32f
1:30pm 15 22 mph 1005.3mb 39f 33f
1:24pm 16 20 mph 1005.3mb 39f 32f
1:18pm 17 21 mph 1005.2mb 39f 32f
1:12pm 17 22 mph 1005.2mb 39f 32f
1:06pm 14 17 mph 1005.3mb 39f 32f
1:00pm 16 23 mph 1005.3mb 39f 32f
12:54pm 14 18 mph 1005.3mb 38f 33f
12:48pm 20 24 mph 1005.4mb 38f 32f
12:42pm 17 22 mph 1005.4mb 38f 32f
12:36pm 18 24 mph 1005.4mb 38f 32f
12:30pm 15 20 mph 1005.4mb 38f 33f
12:24pm 17 23 mph 1005.4mb 38f 32f
12:18pm 16 20 mph 1005.5mb 38f 32f
12:12pm 16 18 mph 1005.6mb 38f 32f
12:06pm 16 20 mph 1005.6mb 38f 32f
12:00pm 15 20 mph 1005.6mb 38f 32f
11:54am 20 24 mph 1005.6mb 38f 32f
11:48am 15 18 mph 1005.7mb 38f 32f
11:42am 18 23 mph 1005.7mb 38f 32f
11:36am 18 24 mph 1005.8mb 38f 32f
11:30am 16 20 mph 1005.9mb 38f 32f
11:24am 16 21 mph 1006mb 38f 32f
11:18am 20 22 mph 1006mb 38f 31f
11:12am 21 24 mph 1005.9mb 38f 31f
11:06am 17 24 mph 1005.9mb 38f 32f
11:00am 18 23 mph 1005.9mb 38f 31f
10:54am 21 25 mph 1005.9mb 38f 31f
10:48am 16 22 mph 1005.9mb 38f 32f
10:42am 20 25 mph 1006mb 38f 31f
10:36am 22 28 mph 1005.9mb 38f 31f
10:30am 20 25 mph 1005.9mb 38f 31f
10:24am 18 23 mph 1005.9mb 38f 31f
10:18am 21 26 mph 1005.9mb 38f 31f
10:12am 23 28 mph 1005.9mb 38f 31f
10:06am 21 25 mph 1006mb 38f 31f
10:00am 23 26 mph 1005.9mb 38f 30f
9:54am 20 24 mph 1006mb 38f 30f
9:48am 21 25 mph 1005.9mb 38f 30f
9:42am 17 21 mph 1006mb 38f 30f
9:36am 18 23 mph 1006mb 38f 30f
9:30am 17 21 mph 1006mb 38f 30f
9:24am 17 20 mph 1006.1mb 38f 30f
9:18am 20 26 mph 1006.1mb 38f 30f
9:12am 18 25 mph 1006.1mb 38f 30f
9:06am 18 23 mph 1006.1mb 38f 29f
9:00am 21 29 mph 1006mb 38f 30f
8:54am 21 28 mph 1006mb 38f 29f
8:48am 21 26 mph 1006mb 38f 30f
8:42am 21 28 mph 1005.9mb 38f 30f
8:36am 21 25 mph 1005.9mb 38f 30f
8:30am 23 29 mph 1005.8mb 38f 30f
8:24am 22 28 mph 1005.7mb 38f 30f
8:18am 20 24 mph 1005.7mb 38f 30f
8:12am 21 24 mph 1005.6mb 38f 30f
8:06am 20 25 mph 1005.5mb 38f 30f
8:00am 16 21 mph 1005.6mb 38f 29f
7:54am 15 20 mph 1005.5mb 38f 29f
7:48am 16 20 mph 1005.5mb 39f 29f
7:42am 15 18 mph 1005.3mb 39f 29f
7:36am 20 26 mph 1005.2mb 39f 29f
7:30am 20 24 mph 1005.2mb 39f 29f
7:24am 15 20 mph 1005.1mb 39f 30f
7:18am 15 21 mph 1004.9mb 39f 29f
7:12am 21 25 mph 1004.7mb 39f 29f
7:06am 21 24 mph 1004.6mb 39f 29f
7:00am 21 26 mph 1004.5mb 39f 29f
6:54am 21 25 mph 1004.6mb 39f 29f
6:48am 20 24 mph 1004.5mb 39f 29f
6:42am 21 28 mph 1004.4mb 39f 29f
6:36am 20 23 mph 1004.5mb 39f 29f
6:30am 15 18 mph 1004.4mb 39f 30f
6:24am 16 20 mph 1004.4mb 39f 30f
6:18am 20 25 mph 1004.2mb 39f 30f
6:12am 20 23 mph 1004.1mb 39f 29f
6:06am 21 25 mph 1004.1mb 39f 29f
6:00am 17 22 mph 1004mb 39f 30f
5:54am 21 28 mph 1003.9mb 39f 30f
5:48am 20 23 mph 1003.8mb 39f 30f
5:42am 21 28 mph 1003.7mb 39f 30f
5:36am 21 26 mph 1003.6mb 39f 30f
5:30am 18 23 mph 1003.6mb 39f 31f
5:24am 20 24 mph 1003.6mb 39f 30f
5:18am 18 22 mph 1003.6mb 39f 31f
5:12am 17 22 mph 1003.5mb 39f 31f
5:06am 20 24 mph 1003.5mb 39f 31f
5:00am 20 25 mph 1003.5mb 39f 31f
4:54am 21 24 mph 1003.5mb 39f 31f
4:48am 22 26 mph 1003.5mb 39f 31f
4:42am 17 21 mph 1003.5mb 39f 31f
4:36am 21 25 mph 1003.4mb 39f 30f
4:30am 20 25 mph 1003.4mb 39f 31f
4:24am 20 26 mph 1003.4mb 39f 31f
4:18am 23 29 mph 1003.3mb 39f 31f
4:12am 18 22 mph 1003.2mb 39f 31f
4:06am 18 23 mph 1003.1mb 39f 31f
4:00am 22 28 mph 1003mb 39f 31f
3:54am 17 22 mph 1003mb 39f 31f
3:48am 23 26 mph 1003mb 39f 31f
3:42am 21 24 mph 1003.1mb 39f 31f
3:36am 18 22 mph 1003mb 39f 31f
3:30am 22 25 mph 1002.9mb 39f 31f
3:24am 21 25 mph 1002.9mb 39f 31f
3:18am 22 26 mph 1002.8mb 39f 31f
3:12am 16 22 mph 1002.8mb 39f 31f
3:06am 18 24 mph 1002.8mb 39f 31f
3:00am 21 25 mph 1002.8mb 39f 31f
2:54am 22 26 mph 1002.7mb 39f 31f
2:48am 20 25 mph 1002.6mb 39f 31f
2:42am 22 29 mph 1002.5mb 39f 31f
2:36am 21 26 mph 1002.5mb 39f 31f
2:30am 21 24 mph 1002.5mb 39f 31f
2:24am 20 24 mph 1002.5mb 39f 32f
2:18am 22 29 mph 1002.5mb 39f 32f
2:12am 23 28 mph 1002.5mb 39f 32f
2:06am 22 26 mph 1002.5mb 39f 32f
2:00am 20 24 mph 1002.5mb 39f 32f
1:54am 22 26 mph 1002.5mb 39f 32f
1:48am 22 29 mph 1002.5mb 39f 32f
1:42am 23 30 mph 1002.4mb 39f 32f
1:36am 21 25 mph 1002.3mb 39f 33f
1:30am 20 26 mph 1002.2mb 39f 33f
1:24am 18 24 mph 1002.2mb 39f 33f
1:18am 20 24 mph 1002.1mb 39f 33f
1:12am 18 23 mph 1002mb 40f 33f
1:06am 23 28 mph 1001.9mb 40f 33f
1:00am 21 24 mph 1001.8mb 40f 33f
12:54am 22 26 mph 1001.9mb 40f 33f
12:48am 21 29 mph 1001.9mb 40f 33f
12:42am 23 28 mph 1001.7mb 40f 33f
12:36am 22 29 mph 1001.6mb 40f 34f
12:30am 22 26 mph 1001.6mb 40f 34f
12:24am 22 29 mph 1001.6mb 40f 34f
12:18am 21 26 mph 1001.7mb 40f 34f
12:12am 22 26 mph 1001.7mb 40f 35f
12:06am 20 28 mph 1001.7mb 40f 35f
12:00am 23 34 mph 1001.7mb 40f 35f
Mon 01/26 11:54pm 20 31 mph 1001.7mb 40f 35f
11:48pm 22 29 mph 1001.7mb 40f 35f
11:42pm 23 31 mph 1001.7mb 40f 35f
11:36pm 20 30 mph 1001.7mb 40f 35f
11:30pm 21 29 mph 1001.6mb 40f 35f
11:24pm 22 36 mph 1001.7mb 40f 35f
11:18pm 22 32 mph 1001.7mb 40f 35f
11:12pm 20 30 mph 1001.8mb 40f 36f
11:06pm 21 31 mph 1001.8mb 40f 36f
11:00pm 22 33 mph 1001.7mb 40f 36f
10:54pm 21 29 mph 1001.7mb 40f 36f
10:48pm 23 38 mph 1001.6mb 40f 36f
10:42pm 21 28 mph 1001.7mb 40f 36f
10:36pm 26 39 mph 1001.7mb 40f 36f
10:30pm 23 31 mph 1001.7mb 40f 36f
10:24pm 25 34 mph 1001.7mb 40f 36f
10:18pm 23 36 mph 1001.7mb 40f 36f
10:12pm 24 33 mph 1001.6mb 40f 37f
10:06pm 20 31 mph 1001.4mb 40f 37f
10:00pm 21 30 mph 1001.4mb 40f 37f
9:54pm 24 34 mph 1001.3mb 40f 37f
9:48pm 17 29 mph 1001.3mb 40f 37f
9:42pm 22 31 mph 1001.3mb 40f 37f
9:36pm 23 37 mph 1001.3mb 40f 37f
9:30pm 20 32 mph 1001.3mb 40f 37f
9:24pm 23 34 mph 1001.3mb 40f 37f
9:18pm 26 38 mph 1001.3mb 40f 37f
9:12pm 21 32 mph 1001.4mb 40f 37f
9:06pm 22 32 mph 1001.5mb 40f 37f
9:00pm 23 37 mph 1001.5mb 40f 37f
8:54pm 21 33 mph 1001.5mb 40f 37f
8:48pm  -  mph 1001.5mb 40f 37f
8:42pm  -  mph 1001.4mb 40f 37f
8:36pm  -  mph 1001.5mb 40f 37f
8:30pm 22 32 mph 1001.5mb 40f 38f
8:24pm 21 31 mph 1001.6mb 40f 38f
8:18pm 21 32 mph 1001.5mb 40f 38f
8:12pm 20 28 mph 1001.6mb 40f 38f
8:06pm 22 29 mph 1001.6mb 40f 38f
8:00pm 22 33 mph 1001.4mb 40f 38f
7:54pm 21 31 mph 1001.2mb 40f 39f
7:48pm 22 33 mph 1001.1mb 40f 38f
7:42pm 20 29 mph 1001.1mb 40f 39f
7:36pm 20 29 mph 1001.1mb 40f 39f
7:30pm 22 32 mph 1001.1mb 40f 39f
7:24pm 21 36 mph 1001.1mb 40f 39f
7:18pm 20 28 mph 1001mb 40f 39f
7:12pm 17 30 mph 1001mb 40f 39f
7:06pm 20 33 mph 1001.1mb 40f 39f
7:00pm 17 29 mph 1001mb 40f 39f
6:54pm 21 33 mph 1001mb 40f 39f
6:48pm 24 34 mph 1000.8mb 40f 39f
6:42pm 20 32 mph 1000.8mb 40f 38f
6:36pm 16 30 mph 1000.8mb 40f 38f
6:30pm 14 24 mph 1000.7mb 40f 38f
6:24pm 24 39 mph 1000.7mb 40f 38f
6:18pm 20 29 mph 1000.6mb 40f 39f
6:12pm 22 33 mph 1000.6mb 40f 39f
6:06pm 21 32 mph 1000.5mb 40f 39f
6:00pm 21 33 mph 1000.4mb 40f 39f
5:54pm 15 25 mph 1000.5mb 40f 39f
5:48pm 16 25 mph 1000.7mb 40f 39f
5:42pm 15 28 mph 1000.7mb 40f 39f
5:36pm 22 30 mph 1000.6mb 40f 39f
5:30pm 16 24 mph 1000.7mb 40f 40f
5:24pm 15 23 mph 1000.7mb 40f 40f
5:18pm 14 23 mph 1000.6mb 40f 40f
5:12pm 10 20 mph 1000.7mb 40f 40f
5:06pm 14 26 mph 1000.7mb 40f 40f
5:00pm 14 28 mph 1000.6mb 40f 40f
4:54pm 16 34 mph 1000.5mb 40f 40f
4:48pm 16 28 mph 1000.7mb 40f 39f
4:42pm 21 29 mph 1000.6mb 40f 39f
4:36pm 18 32 mph 1000.6mb 40f 39f
4:30pm 16 28 mph 1000.7mb 40f 39f
4:24pm 16 25 mph 1000.6mb 40f 39f
4:18pm 16 28 mph 1000.6mb 40f 39f
4:12pm 17 31 mph 1000.7mb 40f 39f
4:06pm 17 29 mph 1000.8mb 40f 39f
4:00pm 14 24 mph 1001mb 40f 39f
3:54pm 20 25 mph 1001.1mb 40f 39f
3:48pm 21 25 mph 1001.2mb 40f 39f
3:42pm 16 21 mph 1001.3mb 40f 39f
3:36pm 13 21 mph 1001.4mb 40f 40f
3:30pm 13 21 mph 1001.5mb 40f 40f
3:24pm 14 20 mph 1001.4mb 40f 40f
3:18pm 15 17 mph 1001.7mb 40f 41f
3:12pm 16 18 mph 1002mb 40f 41f
3:06pm 15 23 mph 1002.1mb 40f 41f
3:00pm 17 22 mph 1002mb 40f 41f
2:54pm 18 23 mph 1001.9mb 40f 41f
2:48pm 15 23 mph 1001.7mb 40f 41f
2:42pm 14 20 mph 1001.5mb 40f 41f
2:36pm 16 21 mph 1001.3mb 40f 41f
2:30pm 18 22 mph 1001.4mb 40f 41f
2:24pm 17 20 mph 1001.6mb 40f 41f
2:18pm 20 22 mph 1001.8mb 40f 41f
2:12pm 16 20 mph 1001.9mb 40f 42f
2:06pm 17 23 mph 1001.9mb 40f 42f
2:00pm 20 23 mph 1002mb 40f 43f
1:54pm 20 24 mph 1001.8mb 40f 43f
1:48pm 14 20 mph 1001.9mb 40f 43f
1:42pm 18 23 mph 1002mb 40f 43f
1:36pm 13 16 mph 1002.2mb 40f 43f
1:30pm 16 20 mph 1002.4mb 40f 44f
1:24pm 16 22 mph 1002.3mb 40f 44f
1:18pm 16 21 mph 1002.1mb 40f 43f
1:12pm 8 11 mph 1002.3mb 40f 43f
1:06pm 11 15 mph 1002.6mb 40f 43f
1:00pm 13 14 mph 1003.1mb 40f 43f
12:54pm 9 13 mph 1003.3mb 40f 43f
12:48pm 7 10 mph 1003.5mb 40f 43f
12:42pm 11 15 mph 1003.6mb 40f 43f
12:36pm 11 14 mph 1003.5mb 40f 43f
12:30pm 10 13 mph 1003.5mb 40f 43f
12:24pm 8 13 mph 1003.8mb 40f 44f
12:18pm 8 11 mph 1004.2mb 40f 44f
12:12pm 7 9 mph 1004.5mb 40f 44f
12:06pm 9 10 mph 1004.4mb 40f 44f
12:00pm 9 11 mph 1004.6mb 40f 43f
11:54am 8 11 mph 1004.7mb 40f 44f
11:48am 7 10 mph 1004.7mb 40f 44f
11:42am 6 9 mph 1004.7mb 40f 44f
11:36am 7 11 mph 1004.4mb 40f 44f
11:30am 6 9 mph 1004.4mb 40f 44f
11:24am 8 16 mph 1004.4mb 40f 44f
11:18am 9 15 mph 1004.3mb 40f 44f
11:12am 10 15 mph 1004.5mb 40f 44f
11:06am 13 20 mph 1004.6mb 40f 44f
11:00am 11 18 mph 1004.9mb 40f 43f
10:54am 9 14 mph 1005.3mb 40f 43f
10:48am 11 16 mph 1005.4mb 40f 43f
10:42am 14 23 mph 1005.5mb 40f 43f
10:36am 13 20 mph 1005.6mb 40f 43f
10:30am 13 21 mph 1005.9mb 40f 43f
10:24am 14 22 mph 1005.8mb 40f 43f
10:18am 15 22 mph 1006.2mb 40f 43f
10:12am 14 22 mph 1006.4mb 40f 43f
10:06am 15 24 mph 1006.2mb 40f 43f
10:00am 14 24 mph 1006.4mb 40f 43f
9:54am 14 23 mph 1006.5mb 40f 43f
9:48am 14 22 mph 1006.3mb 40f 43f
9:42am 14 21 mph 1006.5mb 40f 43f
9:36am 13 18 mph 1006.8mb 40f 42f
9:30am 14 22 mph 1006.9mb 40f 42f
9:24am 11 21 mph 1007.1mb 40f 42f
9:18am 13 21 mph 1006.9mb 40f 42f
9:12am 11 20 mph 1006.5mb 40f 42f
9:06am 11 18 mph 1006.8mb 40f 42f
9:00am 9 17 mph 1007.1mb 40f 42f
8:54am 13 22 mph 1007.5mb 40f 42f
8:48am 8 22 mph 1007.5mb 40f 42f
8:42am 7 16 mph 1007.7mb 40f 42f
8:36am 9 17 mph 1007.6mb 40f 42f
8:30am 11 21 mph 1007.9mb 40f 42f
8:24am 11 21 mph 1007.9mb 40f 42f
8:18am 6 13 mph 1008.3mb 40f 42f
8:12am 7 15 mph 1008.3mb 40f 42f
8:06am 6 14 mph 1008.3mb 40f 42f
8:00am 7 15 mph 1008.5mb 40f 42f
7:54am 7 15 mph 1008.6mb 40f 42f
7:48am 8 14 mph 1008.7mb 40f 42f
7:42am 6 11 mph 1008.8mb 40f 42f
7:36am 7 14 mph 1008.9mb 40f 42f
7:30am 6 13 mph 1008.8mb 40f 42f
7:24am 7 11 mph 1008.7mb 40f 42f
7:18am 7 13 mph 1008.7mb 40f 42f
7:12am 10 17 mph 1008.7mb 40f 42f
7:06am 9 16 mph 1008.7mb 40f 42f
7:00am 8 15 mph 1008.8mb 40f 42f
6:54am 9 15 mph 1009mb 40f 42f
6:48am 6 13 mph 1009.1mb 40f 42f
6:42am 7 11 mph 1009.2mb 40f 42f
6:36am 8 14 mph 1009mb 40f 42f
6:30am 9 14 mph 1009.1mb 40f 42f
6:24am 10 16 mph 1009mb 40f 42f
6:18am 8 14 mph 1009.1mb 40f 42f
6:12am 9 16 mph 1009.1mb 40f 42f
6:06am 10 17 mph 1009mb 40f 42f
6:00am 9 15 mph 1009mb 40f 42f
5:54am 9 16 mph 1009mb 40f 42f
5:48am 10 15 mph - - -
5:42am 10 15 mph 1009.1mb 40f 41f
5:36am 8 14 mph 1009mb 40f 41f
5:30am 9 14 mph 1009mb 40f 41f
5:24am 9 13 mph 1009.1mb 40f 41f
5:18am 9 14 mph 1009.1mb 40f 41f
5:12am 8 14 mph 1009.1mb 40f 41f
5:06am 8 11 mph 1009.1mb 40f 41f
5:00am 6 10 mph - - -
4:54am 5 8 mph 1009.4mb 40f 42f
4:48am 8 10 mph 1009.5mb - -
4:42am 6 9 mph 1009.5mb 40f 42f
4:36am 7 13 mph 1009.6mb 40f 42f
4:30am 8 10 mph 1009.6mb 40f 42f
4:24am 8 11 mph 1009.6mb 40f 42f
4:18am 8 10 mph 1009.6mb 40f 42f
4:12am 7 10 mph 1009.6mb 40f 42f
4:06am 6 9 mph 1009.8mb 40f 42f
4:00am 6 9 mph 1009.9mb 40f 42f
3:54am 7 9 mph 1009.9mb 40f 42f
3:48am 7 9 mph 1010.1mb 40f 42f
3:42am 7 10 mph 1010.1mb 40f 42f
3:36am 7 9 mph 1010.2mb 40f 42f
3:30am 7 9 mph 1010.4mb 40f 42f
3:24am 7 10 mph 1010.4mb 40f 42f
3:18am 6 9 mph 1010.4mb 40f 42f
3:12am 6 7 mph 1010.4mb 40f 42f
3:06am 5 6 mph 1010.5mb 40f 42f
3:00am 5 7 mph 1010.6mb 40f 41f
2:54am 5 7 mph 1010.7mb 40f 41f
2:48am 5 6 mph 1010.8mb 40f 41f
2:42am 3 5 mph 1011mb 40f 41f
2:36am 2
mph
1011.1mb 40f 41f
2:30am 1 2 mph 1011.1mb 40f 41f
2:24am 1 2 mph 1011.3mb 40f 41f
2:18am  -  1 mph 1011.4mb 40f 41f
2:12am 1 2 mph 1011.5mb 40f 41f
2:06am 1 2 mph 1011.6mb 40f 41f
2:00am 2 3 mph 1011.6mb 40f 42f
1:54am 2 3 mph 1011.4mb 40f 41f
1:48am 2
mph
1011.5mb - -
1:42am 1 2 mph 1011.4mb - 41f
1:36am 1 2 mph 1011.4mb - 41f
1:30am  -  1 mph 1011.5mb 40f 41f
1:24am  -  1 mph 1011.5mb 40f 41f
1:18am 1 2 mph 1011.5mb 40f 41f
1:12am 2 3 mph 1011.6mb 40f 41f
1:06am 2 3 mph 1011.7mb 40f 41f
1:00am 3
mph
1011.7mb 40f 41f
12:54am 3 5 mph 1011.9mb 40f 41f
12:48am 3 6 mph 1011.8mb 40f 41f
12:42am 3 6 mph 1011.7mb 40f 41f
12:36am 3 5 mph 1011.8mb 40f 41f
12:30am 5 6 mph 1011.8mb 40f 41f
12:24am 5
mph
1011.9mb 40f 41f
12:18am 3 5 mph 1011.8mb 40f 42f
12:12am 5 6 mph 1011.9mb 40f 41f
12:06am 5 6 mph 1012.1mb 40f 41f
12:00am 3 6 mph 1012.1mb 40f 40f
Sun 01/25 11:54pm 3 5 mph 1012.2mb 40f 40f
11:48pm 3
mph
1012.4mb 40f 41f
11:42pm 3
mph
1012.2mb 40f 40f
11:36pm 2 3 mph 1012.3mb 40f 40f
11:30pm 3
mph
1012.5mb 40f 40f
11:24pm 3
mph
1012.6mb 40f 40f
11:18pm 5
mph
1012.4mb 40f 40f
11:12pm 2
mph
1012.6mb 40f 39f
11:06pm 2 3 mph 1012.7mb 40f 39f
11:00pm 2
mph
1012.7mb 40f 39f
10:54pm 3
mph
1012.6mb 40f 39f
10:48pm 3
mph
1012.8mb - -
10:42pm 2 3 mph 1012.7mb 40f 39f
10:36pm 2 3 mph 1012.6mb 40f 39f
10:30pm 3
mph
1012.7mb 40f 39f
10:24pm 3
mph
1012.7mb 40f 39f
10:18pm 3 5 mph 1012.6mb 40f 39f
10:12pm 5 6 mph 1012.7mb 40f 40f
10:06pm 5
mph
1012.6mb 40f 39f
10:00pm 5 6 mph 1012.5mb 40f 39f
9:54pm 5 6 mph 1012.6mb 40f 39f
9:48pm 5
mph
1012.5mb 40f 40f
9:42pm 5
mph
1012.4mb 40f 40f
9:36pm 5 6 mph 1012.3mb 40f 40f
9:30pm 6 7 mph 1012.4mb 40f 40f
9:24pm 6 7 mph 1012.5mb 40f 40f
9:18pm 6 7 mph 1012.5mb 40f 40f
9:12pm 7
mph
1012.5mb 40f 40f
9:06pm 6 7 mph 1012.5mb 40f 40f
9:00pm 6
mph
1012.4mb 40f 40f
8:54pm 6 7 mph 1012.4mb 40f 40f
8:48pm 5 6 mph 1012.4mb 40f -
8:42pm 6
mph
1012.5mb 40f 40f
8:36pm 6 7 mph 1012.4mb 40f 40f
8:30pm 3 5 mph 1012.2mb 40f 40f
8:24pm 5
mph
1012.1mb 40f 40f
8:18pm 5 6 mph 1012.1mb 40f 40f
8:12pm 3 5 mph 1012.2mb 40f 40f
8:06pm 5 6 mph 1012.3mb 40f 40f
8:00pm 5
mph
1012.4mb 40f 40f
7:54pm 3 5 mph 1012.4mb 40f 40f
7:48pm 3 5 mph 1012.4mb 40f 40f
7:42pm 5
mph
1012.3mb 40f 40f
7:36pm 5 6 mph 1012.4mb 40f 40f
7:30pm 6
mph
1012.5mb 40f 40f
7:24pm 6 7 mph 1012.3mb 40f 41f
7:18pm 6 7 mph 1012.3mb 40f 40f
7:12pm 5
mph
1012.4mb 40f 40f
7:06pm 3 5 mph 1012.3mb 40f 41f
7:00pm 5
mph
1012.1mb 40f 41f
6:54pm 3 5 mph 1012.1mb 40f 41f
6:48pm 6 7 mph 1012.1mb 40f 42f
6:42pm 6 8 mph 1012.1mb 40f 42f
6:36pm 7 8 mph 1012.1mb 40f 42f
6:30pm 8 9 mph 1011.8mb 40f 42f
6:24pm 7 8 mph 1011.6mb 40f 42f
6:18pm 7 9 mph 1011.7mb 40f 42f
6:12pm 5 6 mph 1011.6mb 40f 43f
6:06pm 3 6 mph 1011.5mb 40f 43f
6:00pm 5 6 mph 1011.6mb 40f 44f
5:54pm 6 7 mph 1011.5mb 40f 44f
5:48pm 6 7 mph 1011.5mb 40f 44f
5:42pm 7 8 mph 1011.5mb 40f 44f
5:36pm 7 9 mph 1011.3mb 40f 45f
5:30pm 7 9 mph 1011.1mb 40f 45f
5:24pm 7 9 mph 1011.1mb 40f 45f
5:18pm 8 9 mph 1011.1mb 41f 45f
5:12pm 8 10 mph 1010.9mb 41f 46f
5:06pm 8 9 mph 1010.9mb 41f 44f
5:00pm 7 8 mph 1010.9mb 41f 43f
4:54pm 6 7 mph 1010.9mb 41f 43f
4:48pm 7 9 mph 1010.8mb 41f 44f
4:42pm 6 7 mph 1010.9mb 41f 43f
4:36pm 7 8 mph 1010.7mb 41f 43f
4:30pm 8 9 mph 1010.7mb 40f 43f
4:24pm 6 8 mph 1010.7mb 40f 44f
4:18pm 8 11 mph 1010.8mb 40f 44f
4:12pm 8 10 mph 1010.8mb 40f 43f
4:06pm 7 10 mph 1010.8mb 40f 44f
4:00pm 10 14 mph 1010.8mb 40f 43f
3:54pm 6 8 mph 1010.7mb 40f 45f
3:48pm 3 7 mph 1010.5mb 40f 44f
3:42pm 6 8 mph 1010.3mb 40f 47f
3:36pm 7 11 mph 1010.2mb 40f 45f
3:30pm 5 7 mph 1010.2mb 40f 48f
3:24pm 6 8 mph 1010.2mb 40f 48f
3:18pm 8 11 mph 1010.2mb 40f 48f
3:12pm 8 10 mph 1010.3mb 40f 48f
3:06pm 10 14 mph 1010.3mb 40f 48f
3:00pm 8 10 mph 1010.3mb 40f 48f
2:54pm 8 10 mph 1010.2mb 40f 48f
2:48pm 8 11 mph 1010.2mb 40f 48f
2:42pm 6 9 mph 1010.1mb 40f 48f
2:36pm 13 17 mph 1010mb 40f 48f
2:30pm 11 15 mph 1010mb 40f 48f
2:24pm 7 9 mph 1010mb 40f 48f
2:18pm 7 9 mph 1010.1mb 40f 47f
2:12pm 9 13 mph 1010mb 40f 47f
2:06pm 13 15 mph 1010mb 40f 47f
2:00pm 10 15 mph 1009.9mb 40f 47f
1:54pm 7 9 mph 1010mb 40f 47f
1:48pm 11 15 mph 1010.1mb 40f 47f
1:42pm 7 11 mph 1010.1mb 40f 47f
1:36pm 7 11 mph 1010.1mb 40f 47f
1:30pm 10 16 mph 1010.1mb 40f 47f
1:24pm 14 16 mph 1010.2mb 40f 46f
1:18pm 14 16 mph 1010.2mb 40f 47f
1:12pm 15 18 mph 1010.2mb 40f 46f
1:06pm 13 16 mph 1010.3mb 40f 46f
1:00pm 14 18 mph 1010.5mb 40f 46f
12:54pm 14 17 mph 1010.6mb 39f 46f
12:48pm 14 17 mph 1010.7mb 39f 46f
12:42pm 14 20 mph 1010.8mb 39f 46f
12:36pm 14 17 mph 1010.7mb 39f 46f
12:30pm 14 18 mph 1010.9mb 39f 46f
12:24pm 14 17 mph 1010.9mb 39f 45f
12:18pm 10 16 mph 1011.1mb 39f 46f
12:12pm 15 18 mph 1011.1mb 39f 45f
12:06pm 13 17 mph 1011.2mb 39f 45f
12:00pm 10 11 mph 1011.1mb 39f 46f
11:54am 13 15 mph 1011.1mb 39f 45f
11:48am 16 20 mph 1011.1mb 39f 45f
11:42am 13 16 mph 1011.3mb 39f 45f
11:36am 16 18 mph 1011.2mb 39f 45f
11:30am 13 17 mph 1011.4mb 39f 45f
11:24am 13 15 mph 1011.4mb 39f 44f
11:18am 13 15 mph 1011.4mb 39f 44f
11:12am 13 15 mph 1011.5mb 39f 44f
11:06am 13 16 mph 1011.5mb 39f 44f
11:00am 13 16 mph 1011.5mb 39f 44f
10:54am 14 17 mph 1011.4mb 39f 44f
10:48am 11 15 mph 1011.4mb 39f 44f
10:42am 13 15 mph 1011.3mb 39f 43f
10:36am 13 16 mph 1011.2mb 39f 43f
10:30am 11 15 mph 1011.2mb 39f 43f
10:24am 13 16 mph 1011.2mb 39f 43f
10:18am 10 14 mph 1011.2mb 39f 42f
10:12am 11 15 mph 1011.1mb 39f 42f
10:06am 9 13 mph 1010.9mb 39f 42f
10:00am 10 13 mph 1010.9mb 39f 42f
9:54am 10 13 mph 1010.7mb 38f 42f
9:48am 8 13 mph 1010.5mb 38f 42f
9:42am 9 11 mph 1010.3mb 38f 42f
9:36am 9 13 mph 1010.4mb 38f 41f
9:30am 9 11 mph 1010.3mb 38f 41f
9:24am 8 11 mph 1010.3mb 38f 41f
9:18am 8 10 mph 1010.3mb 38f 41f
9:12am 6 8 mph 1010.3mb 38f 40f
9:06am 7 9 mph 1010.3mb 38f 40f
9:00am 6 8 mph 1010.4mb 38f 40f
8:54am 5 6 mph 1010.5mb 38f 40f
8:48am 6 7 mph 1010.7mb 38f 40f
8:42am 6 8 mph 1010.7mb 38f 40f
8:36am 7 10 mph 1010.7mb 38f 40f
8:30am 9 13 mph 1010.9mb 38f 40f
8:24am 9 10 mph 1011mb 38f 39f
8:18am 8 11 mph 1010.9mb 38f 39f
8:12am 9 13 mph 1010.8mb 38f 39f
8:06am 9 15 mph 1010.7mb 38f 38f
8:00am 8 11 mph 1010.8mb 38f 38f
7:54am 9 13 mph 1010.6mb 38f 37f
7:48am 8 13 mph 1010.6mb 38f 37f
7:42am 8 10 mph 1010.4mb 38f 37f
7:36am 8 10 mph 1010.3mb 38f 37f
7:30am 9 11 mph 1010.2mb 38f 37f
7:24am 10 14 mph 1010.1mb 38f 37f
7:18am 9 14 mph 1010mb 39f 37f
7:12am 9 14 mph 1009.8mb 39f 36f
7:06am 9 14 mph 1009.6mb 39f 36f
7:00am 10 13 mph 1009.5mb 39f 36f
6:54am 9 14 mph 1009.4mb 39f 36f
6:48am 10 13 mph 1009.4mb 39f 36f
6:42am 11 14 mph 1009.3mb 39f 36f
6:36am 11 16 mph 1009.1mb 39f 36f
6:30am 10 15 mph 1008.9mb 39f 36f
6:24am 10 15 mph 1008.7mb 39f 35f
6:18am 10 14 mph 1008.5mb 39f 35f
6:12am 11 16 mph 1008.5mb 39f 36f
6:06am 11 14 mph 1008.5mb 39f 36f
6:00am 13 16 mph 1008.5mb 39f 36f
5:54am 10 14 mph 1008.5mb 39f -
5:48am 10 14 mph 1008.4mb 39f 36f
5:42am 10 14 mph 1008.2mb 39f 36f
5:36am 9 11 mph 1008.1mb 39f 36f
5:30am 9 13 mph 1008mb 39f 36f
5:24am 9 11 mph 1008mb 39f 36f
5:18am 11 15 mph 1007.8mb 39f 36f
5:12am 11 14 mph 1007.6mb 39f 36f
5:06am 11 16 mph 1007.5mb 39f 36f
5:00am 11 16 mph 1007.3mb 39f 37f
4:54am 10 13 mph 1007.2mb 39f 37f
4:48am 10 13 mph 1007mb 39f 37f
4:42am 9 11 mph 1006.8mb 39f 37f
4:36am 10 13 mph 1006.7mb 39f 37f
4:30am 10 14 mph 1006.6mb 39f 37f
4:24am 8 10 mph 1006.5mb 39f 37f
4:18am 10 13 mph 1006.4mb 39f 37f
4:12am 9 11 mph 1006.4mb 39f 37f
4:06am 10 13 mph 1006.4mb 39f 37f
4:00am 11 16 mph 1006.4mb 39f 38f
3:54am 10 15 mph 1006.5mb 39f 38f
3:48am 10 14 mph 1006.5mb 39f 38f
3:42am 11 15 mph 1006.5mb 39f 38f
3:36am 11 14 mph 1006.4mb 39f 38f
3:30am 13 17 mph 1006.3mb 39f 38f
3:24am 13 16 mph 1006.3mb 39f 38f
3:18am 9 13 mph 1006.3mb 39f 37f
3:12am 11 15 mph 1006.2mb 39f 38f
3:06am 11 18 mph 1006.2mb 39f 37f
3:00am 10 14 mph 1006.2mb 39f 37f
2:54am 11 18 mph 1006.2mb 39f 37f
2:48am 13 17 mph 1006.1mb 39f 37f
2:42am 11 15 mph 1006mb 39f 37f
2:36am 9 11 mph 1005.9mb 39f 37f
2:30am 10 14 mph 1005.9mb 39f 37f
2:24am 10 14 mph 1005.8mb 39f 37f
2:18am 11 14 mph 1005.6mb 39f 37f
2:12am 10 14 mph 1005.5mb 39f 37f
2:06am 9 11 mph 1005.4mb 39f 37f
2:00am 8 11 mph 1005.4mb 39f 37f
1:54am 10 14 mph 1005.4mb 39f 37f
1:48am 10 14 mph 1005.2mb 39f -
1:42am 11 15 mph 1005.1mb 39f -
1:36am 10 14 mph 1005mb 39f -
1:30am 10 14 mph 1005mb 39f 37f
1:24am 13 16 mph 1004.8mb 39f 37f
1:18am 13 15 mph - - -
1:12am 10 15 mph 1004.7mb 39f 36f
1:06am 9 15 mph 1004.6mb 39f 37f
1:00am 11 14 mph 1004.6mb 39f 37f
12:54am 11 14 mph 1004.6mb 39f 37f
12:48am 10 14 mph 1004.5mb 39f 37f
12:42am 10 15 mph 1004.4mb 39f 37f
12:36am 10 15 mph 1004.3mb 39f 37f
12:30am 9 13 mph 1004.3mb 39f 37f
12:24am 8 11 mph 1004.3mb 39f 37f
12:18am 9 11 mph 1004.2mb 39f 37f
12:12am 11 16 mph 1004.1mb 39f 37f
12:06am 10 16 mph 1003.9mb 39f 37f
12:00am 10 14 mph 1003.9mb 39f 37f
Sat 01/24 11:54pm 11 15 mph 1003.8mb 39f 37f
11:48pm 10 15 mph 1003.8mb 39f 37f
11:42pm 10 14 mph 1003.7mb 39f 37f
11:36pm 9 13 mph 1003.7mb 39f 38f
11:30pm 10 15 mph 1003.7mb 39f 38f
11:24pm 10 16 mph 1003.5mb 39f 38f
11:18pm 11 16 mph 1003.4mb 39f 38f
11:12pm 11 16 mph 1003.2mb 39f 38f
11:06pm 9 14 mph 1003mb 39f 38f
11:00pm 11 17 mph 1002.9mb 39f 38f
10:54pm 11 15 mph 1002.9mb 39f 38f
10:48pm 10 14 mph 1002.9mb 39f 38f
10:42pm 14 20 mph 1002.9mb 39f 38f
10:36pm 11 15 mph 1003mb 39f 38f
10:30pm 14 16 mph 1002.8mb 39f 38f
10:24pm 11 18 mph 1002.6mb 39f 38f
10:18pm 10 14 mph 1002.5mb 39f 38f
10:12pm 11 16 mph 1002.5mb 39f 38f
10:06pm 11 18 mph 1002.4mb 39f 38f
10:00pm 13 17 mph 1002.3mb 39f 38f
9:54pm 13 16 mph 1002.1mb 39f 38f
9:48pm 11 15 mph 1002mb 39f 38f
9:42pm 10 14 mph 1002mb 39f 38f
9:36pm 11 15 mph 1001.6mb 39f 38f
9:30pm 13 15 mph 1001.6mb 39f 38f
9:24pm 13 15 mph 1001.7mb 39f 38f
9:18pm 10 14 mph - - -
9:12pm 10 13 mph 1001.6mb 39f 38f
9:06pm 10 14 mph 1001.6mb 39f 38f
9:00pm 10 14 mph 1001.4mb 40f 38f
8:54pm 10 14 mph 1001.3mb 40f 38f
8:48pm 9 13 mph 1001.1mb 40f 38f
8:42pm 11 17 mph 1001mb 40f 38f
8:36pm 11 16 mph 1000.8mb 40f 38f
8:30pm 13 17 mph 1000.8mb 40f 38f
8:24pm 13 16 mph 1000.6mb 40f 38f
8:18pm 13 17 mph 1000.6mb 40f 38f
8:12pm 15 21 mph 1000.5mb 40f 38f
8:06pm 11 15 mph 1000.5mb 40f 38f
8:00pm 14 17 mph 1000.3mb 40f 38f
7:54pm 13 17 mph 1000.2mb 40f 38f
7:48pm 14 17 mph 1000.1mb 40f 38f
7:42pm 14 20 mph 1000.1mb 40f 38f
7:36pm 15 20 mph 1000mb 40f 38f
7:30pm 14 21 mph 999.8mb 40f 38f
7:24pm 13 17 mph 999.8mb 40f 38f
7:18pm 13 18 mph 999.8mb 40f 38f
7:12pm 13 16 mph 999.8mb 40f 38f
7:06pm 11 15 mph 999.7mb 40f 38f
7:00pm 11 15 mph 999.6mb 40f 38f
6:54pm 13 20 mph 999.4mb 40f 38f
6:48pm 10 17 mph 999.2mb 40f 38f
6:42pm 10 16 mph 999.1mb 40f 38f
6:36pm 11 16 mph 999.1mb 40f 39f
6:30pm 11 16 mph 998.9mb 40f 39f
6:24pm 10 13 mph 998.8mb 40f 39f
6:18pm 10 15 mph 998.8mb 40f 39f
6:12pm 11 20 mph 998.8mb 40f 39f
6:06pm 15 18 mph 998.7mb 40f 39f
6:00pm 11 18 mph 998.4mb 40f 39f
5:54pm 13 16 mph 998.2mb 40f 39f
5:48pm 16 22 mph 998.1mb 40f 39f
5:42pm 13 18 mph 997.8mb 40f 39f
5:36pm 14 22 mph 997.6mb 40f 39f
5:30pm 10 14 mph 997.7mb 40f 39f
5:24pm 14 21 mph 997.5mb 40f 39f
5:18pm 13 16 mph 997.3mb 40f 39f
5:12pm 14 21 mph 997.1mb 40f 39f
5:06pm 16 22 mph 996.9mb 40f 39f
5:00pm 15 21 mph 996.8mb 40f 39f
4:54pm 16 20 mph 996.8mb 40f 39f
4:48pm 16 23 mph 996.7mb 40f 38f
4:42pm 15 20 mph 996.7mb 40f 38f
4:36pm 15 21 mph 996.6mb 40f 38f
4:30pm 17 21 mph 996.6mb 40f 38f
4:24pm 15 20 mph 996.5mb 40f 38f
4:18pm 15 21 mph 996.4mb 40f 38f
4:12pm 11 16 mph 996.5mb 40f 38f
4:06pm 14 17 mph 996.4mb 40f 37f
4:00pm 17 25 mph 996.4mb 40f 37f
3:54pm 17 23 mph 996.2mb 40f 37f
3:48pm 16 24 mph 996mb 40f 37f
3:42pm 22 28 mph 995.8mb 40f 38f
3:36pm 18 25 mph 995.7mb 40f 38f
3:30pm 14 21 mph 995.6mb 40f 38f
3:24pm 18 26 mph 995.4mb 40f 39f
3:18pm 14 20 mph 995.3mb 40f 39f
3:12pm 16 21 mph 995.1mb 40f 39f
3:06pm 14 18 mph 995mb 40f 39f
3:00pm 14 17 mph 994.7mb 40f 39f
2:54pm 14 22 mph 994.4mb 40f 40f
2:48pm 14 17 mph 994.2mb 40f 40f
2:42pm 16 20 mph 994mb 40f 40f
2:36pm 11 17 mph 993.8mb 40f 40f
2:30pm 14 21 mph 993.3mb 40f 40f
2:24pm 13 15 mph 993.1mb 40f 40f
2:18pm 14 17 mph 992.7mb 40f 40f
2:12pm 10 13 mph 993.1mb 40f 40f
2:06pm 11 14 mph 992.6mb 40f 40f
2:00pm 13 16 mph 992.7mb 40f 40f
1:54pm 14 20 mph 992.3mb 40f 40f
1:48pm 14 18 mph 992.3mb 40f 40f
1:42pm 18 22 mph 992.1mb 40f 39f
1:36pm 15 20 mph 992.1mb 40f 39f
1:30pm 14 17 mph 992mb 40f 39f
1:24pm 14 16 mph 991.8mb 40f 39f
1:18pm 14 16 mph 992.1mb 40f 38f
1:12pm 14 16 mph 992.2mb 40f 38f
1:06pm 14 17 mph 993.2mb 40f 38f
1:00pm 14 17 mph 993.5mb 40f 38f
12:54pm 16 20 mph 993.9mb 40f 38f
12:48pm 15 17 mph 993.9mb 40f 38f
12:42pm 15 18 mph 994.3mb 40f 38f
12:36pm 15 21 mph 994.2mb 40f 38f
12:30pm 14 18 mph 994.1mb 40f 38f
12:24pm 14 16 mph 994.6mb 40f 38f
12:18pm 15 18 mph 994.6mb 40f 37f
12:12pm 16 20 mph 994.2mb 40f 37f
12:06pm 18 24 mph 993.9mb 40f 37f
12:00pm 18 24 mph 994mb 40f 37f
11:54am 17 21 mph 993.9mb 40f 37f
11:48am 18 23 mph 993.2mb 40f 37f
11:42am 23 26 mph 992.5mb 40f 37f
11:36am 20 24 mph 993.2mb 40f 37f
11:30am 18 22 mph 994mb 40f 37f
11:24am 20 26 mph 993.7mb 40f 37f
11:18am 18 23 mph 994.4mb 40f 37f
11:12am 17 22 mph 995.4mb 40f 37f
11:06am 16 22 mph 996mb 40f 37f
11:00am 15 20 mph 996.4mb 40f 37f
10:54am 15 21 mph 997.1mb 40f 37f
10:48am 15 21 mph 997.5mb 40f 37f
10:42am 14 17 mph 997mb 40f 37f
10:36am 13 15 mph 996.8mb 40f 37f
10:30am 14 16 mph 997.1mb 40f 37f
10:24am 10 14 mph 997mb 40f 38f
10:18am 10 13 mph 997mb 40f 37f
10:12am 16 21 mph 996.3mb 40f 38f
10:06am 16 22 mph 995.3mb 40f 38f